Time;durP1;ratioP1;P1;durP2;ratioP2;P2;SDS_P1;SDS_P2;PMS_P1;PMS_P2;Temp;Humidity;BMP_temperature;BMP_pressure;BME280_temperature;BME280_humidity;BME280_pressure;Samples;Min_cycle;Max_cycle;Signal;HPM_P1;HPM_P2
2021/12/27 00:00:10;;;;;;;16.17;11.33;;;1.00;99.90;;;;;;5028515;28;20225;-70
2021/12/27 00:02:36;;;;;;;12.93;11.17;;;1.00;99.90;;;;;;5022635;28;20184;-70
2021/12/27 00:05:02;;;;;;;14.03;11.30;;;1.00;99.90;;;;;;5026126;28;20192;-70
2021/12/27 00:07:28;;;;;;;15.70;12.07;;;1.00;99.90;;;;;;5036713;28;20249;-70
2021/12/27 00:09:54;;;;;;;12.23;10.07;;;1.10;99.90;;;;;;5030006;28;20205;-70
2021/12/27 00:12:20;;;;;;;12.03;10.73;;;1.10;99.90;;;;;;5026997;28;20276;-70
2021/12/27 00:14:45;;;;;;;15.10;11.67;;;1.10;99.90;;;;;;5025043;28;20640;-70
2021/12/27 00:17:11;;;;;;;14.57;12.40;;;1.10;99.90;;;;;;5032680;28;20287;-70
2021/12/27 00:19:37;;;;;;;15.07;11.23;;;1.10;99.90;;;;;;5037420;28;20697;-70
2021/12/27 00:22:03;;;;;;;14.47;10.73;;;1.10;99.90;;;;;;5025275;28;20185;-70
2021/12/27 00:24:29;;;;;;;15.70;11.37;;;1.10;99.90;;;;;;5024357;28;20267;-70
2021/12/27 00:26:55;;;;;;;13.83;10.83;;;1.10;99.90;;;;;;5040701;28;20607;-70
2021/12/27 00:29:21;;;;;;;16.00;12.47;;;1.00;99.90;;;;;;5045811;28;20245;-70
2021/12/27 00:31:47;;;;;;;15.30;11.97;;;0.90;99.90;;;;;;5023877;28;20178;-70
2021/12/27 00:34:13;;;;;;;13.47;12.07;;;0.80;99.90;;;;;;5027078;28;20291;-70
2021/12/27 00:36:39;;;;;;;16.53;12.03;;;0.80;99.90;;;;;;5032441;28;20742;-70
2021/12/27 00:39:05;;;;;;;16.27;12.40;;;0.80;99.90;;;;;;5034187;28;20185;-70
2021/12/27 00:41:31;;;;;;;15.70;11.53;;;0.80;99.90;;;;;;5022176;28;20211;-70
2021/12/27 00:43:57;;;;;;;15.07;12.63;;;0.80;99.90;;;;;;5036771;28;20185;-70
2021/12/27 00:46:23;;;;;;;16.37;12.30;;;0.90;99.90;;;;;;5030921;28;20192;-70
2021/12/27 00:48:48;;;;;;;15.20;12.07;;;0.90;99.90;;;;;;5030908;28;20197;-70
2021/12/27 00:51:14;;;;;;;15.97;12.37;;;1.00;99.90;;;;;;5029270;28;20295;-70
2021/12/27 00:53:40;;;;;;;14.23;11.50;;;1.00;99.90;;;;;;5031593;28;20196;-70
2021/12/27 00:56:05;;;;;;;15.60;11.40;;;1.00;99.90;;;;;;5036753;28;20300;-70
2021/12/27 00:58:31;;;;;;;16.03;12.27;;;1.00;99.90;;;;;;5037068;28;20195;-70
2021/12/27 01:00:57;;;;;;;15.33;12.10;;;0.90;99.90;;;;;;5026869;28;20296;-70
2021/12/27 01:03:23;;;;;;;14.27;12.03;;;0.90;99.90;;;;;;5028793;28;20185;-69
2021/12/27 01:05:49;;;;;;;15.23;11.40;;;1.00;99.90;;;;;;5029044;28;20277;-70
2021/12/27 01:08:14;;;;;;;15.20;11.93;;;0.90;99.90;;;;;;5024239;28;20180;-70
2021/12/27 01:15:51;;;;;;;15.87;11.57;;;1.10;99.90;;;;;;5029066;28;20196;-71
2021/12/27 01:18:18;;;;;;;12.87;10.40;;;1.10;99.90;;;;;;5024286;28;20230;-70
2021/12/27 01:20:44;;;;;;;15.73;11.93;;;1.10;99.90;;;;;;5029997;28;20215;-70
2021/12/27 01:23:11;;;;;;;15.33;11.43;;;1.10;99.90;;;;;;5021135;28;20189;-70
2021/12/27 01:25:36;;;;;;;16.07;11.57;;;1.20;99.90;;;;;;5030129;28;20264;-70
2021/12/27 01:28:04;;;;;;;15.03;11.23;;;1.10;99.90;;;;;;5025542;28;20276;-70
2021/12/27 01:30:31;;;;;;;17.53;12.97;;;1.10;99.90;;;;;;5033693;28;20204;-71
2021/12/27 01:33:00;;;;;;;15.87;12.80;;;1.10;99.90;;;;;;5024892;28;20207;-70
2021/12/27 01:35:26;;;;;;;18.07;12.67;;;1.10;99.90;;;;;;5024288;28;20179;-70
2021/12/27 01:37:53;;;;;;;14.87;12.07;;;1.10;99.90;;;;;;5024713;28;20699;-71
2021/12/27 01:40:25;;;;;;;17.40;12.47;;;1.10;99.90;;;;;;5032713;28;20200;-70
2021/12/27 01:43:06;;;;;;;16.70;13.03;;;1.10;99.90;;;;;;5029833;28;20185;-70
2021/12/27 01:45:32;;;;;;;17.67;13.23;;;1.10;99.90;;;;;;5031330;28;20184;-70
2021/12/27 01:47:58;;;;;;;14.70;12.80;;;1.00;99.90;;;;;;5025337;28;20598;-70
2021/12/27 01:50:24;;;;;;;17.60;13.10;;;1.00;99.90;;;;;;5029351;28;20204;-70
2021/12/27 01:52:50;;;;;;;17.33;12.87;;;0.90;99.90;;;;;;5022462;28;20236;-70
2021/12/27 01:55:16;;;;;;;17.47;13.10;;;0.90;99.90;;;;;;5030177;28;20195;-70
2021/12/27 01:57:42;;;;;;;16.83;12.37;;;0.90;99.90;;;;;;5021191;28;20173;-70
2021/12/27 02:00:08;;;;;;;16.93;13.23;;;0.90;99.90;;;;;;5028476;28;20227;-70
2021/12/27 02:02:34;;;;;;;17.47;12.90;;;0.90;99.90;;;;;;5037265;28;20188;-69
2021/12/27 02:04:59;;;;;;;17.57;12.80;;;0.90;99.90;;;;;;5028550;28;20188;-70
2021/12/27 02:07:25;;;;;;;19.20;14.97;;;0.90;99.90;;;;;;5030594;28;20180;-70
2021/12/27 02:10:01;;;;;;;16.27;12.83;;;0.80;99.90;;;;;;5018428;28;20572;-70
2021/12/27 02:12:28;;;;;;;19.37;13.43;;;0.80;99.90;;;;;;5032257;28;20640;-70
2021/12/27 02:14:54;;;;;;;20.23;13.13;;;0.70;99.90;;;;;;5026502;28;20208;-70
2021/12/27 02:17:21;;;;;;;19.03;13.73;;;0.80;99.90;;;;;;5023702;28;20181;-70
2021/12/27 02:19:51;;;;;;;17.77;13.53;;;0.80;99.90;;;;;;5022282;28;20698;-70
2021/12/27 02:22:17;;;;;;;19.37;13.87;;;0.80;99.90;;;;;;5029074;28;20185;-70
2021/12/27 02:24:42;;;;;;;18.63;14.37;;;0.70;99.90;;;;;;5028093;28;20679;-70
2021/12/27 02:27:12;;;;;;;17.90;13.20;;;0.70;99.90;;;;;;5030051;28;20293;-70
2021/12/27 02:29:37;;;;;;;15.97;13.47;;;0.60;99.90;;;;;;5028629;28;20224;-70
2021/12/27 02:32:03;;;;;;;18.17;13.43;;;0.60;99.90;;;;;;5024538;28;20220;-71
2021/12/27 02:34:29;;;;;;;18.37;13.30;;;0.60;99.90;;;;;;5028562;28;20269;-70
2021/12/27 02:36:55;;;;;;;17.53;14.53;;;0.70;99.90;;;;;;5028317;28;20180;-70
2021/12/27 02:39:20;;;;;;;17.73;14.10;;;0.60;99.90;;;;;;5024158;28;20181;-70
2021/12/27 02:41:46;;;;;;;21.47;14.07;;;0.80;99.90;;;;;;5026499;28;20648;-70
2021/12/27 02:44:12;;;;;;;17.80;13.60;;;0.80;99.90;;;;;;5029484;28;20184;-70
2021/12/27 02:46:37;;;;;;;17.57;14.20;;;0.70;99.90;;;;;;5025985;28;20216;-70
2021/12/27 02:49:04;;;;;;;20.00;14.23;;;0.70;99.90;;;;;;5032080;28;20187;-70
2021/12/27 02:51:30;;;;;;;17.67;14.30;;;0.60;99.90;;;;;;5033455;28;20196;-71
2021/12/27 02:53:57;;;;;;;21.97;14.30;;;0.60;99.90;;;;;;5032647;28;20257;-70
2021/12/27 02:56:22;;;;;;;18.60;14.23;;;0.70;99.90;;;;;;5033660;28;20539;-70
2021/12/27 02:58:49;;;;;;;20.63;15.83;;;0.60;99.90;;;;;;5027604;28;20181;-70
2021/12/27 03:01:20;;;;;;;18.77;13.83;;;0.60;99.90;;;;;;5025949;28;20227;-71
2021/12/27 03:03:46;;;;;;;22.63;16.07;;;0.70;99.90;;;;;;5031652;28;20173;-70
2021/12/27 03:06:12;;;;;;;17.90;14.60;;;0.60;99.90;;;;;;5032870;28;20709;-71
2021/12/27 03:08:39;;;;;;;19.73;14.83;;;0.70;99.90;;;;;;5027525;28;20195;-70
2021/12/27 03:11:07;;;;;;;22.33;15.97;;;0.60;99.90;;;;;;5030279;28;20250;-71
2021/12/27 03:13:35;;;;;;;19.47;14.03;;;0.60;99.90;;;;;;5032625;28;20204;-71
2021/12/27 03:16:07;;;;;;;25.10;15.13;;;0.60;99.90;;;;;;5032575;28;20549;-70
2021/12/27 03:18:35;;;;;;;20.77;14.63;;;0.60;99.90;;;;;;5031099;28;20187;-70
2021/12/27 03:21:01;;;;;;;19.03;14.87;;;0.70;99.90;;;;;;5023493;28;20224;-71
2021/12/27 03:23:27;;;;;;;17.93;14.03;;;0.70;99.90;;;;;;5033489;28;20664;-70
2021/12/27 03:25:53;;;;;;;19.27;15.03;;;0.70;99.90;;;;;;5031816;28;20259;-71
2021/12/27 03:28:19;;;;;;;21.97;15.73;;;0.60;99.90;;;;;;5031252;28;20173;-70
2021/12/27 03:30:46;;;;;;;19.63;16.00;;;0.60;99.90;;;;;;5031521;28;20201;-71
2021/12/27 03:33:13;;;;;;;21.40;15.87;;;0.60;99.90;;;;;;5026076;28;20586;-70
2021/12/27 03:35:48;;;;;;;22.93;15.93;;;0.60;99.90;;;;;;5028284;28;20242;-71
2021/12/27 03:38:14;;;;;;;20.70;15.87;;;0.60;99.90;;;;;;5027298;28;20180;-70
2021/12/27 03:40:40;;;;;;;21.23;14.97;;;0.60;99.90;;;;;;5027958;28;20196;-70
2021/12/27 03:43:06;;;;;;;21.17;15.23;;;0.60;99.90;;;;;;5028564;28;20184;-70
2021/12/27 03:45:37;;;;;;;22.83;15.83;;;0.60;99.90;;;;;;5027819;28;20181;-70
2021/12/27 03:48:05;;;;;;;21.00;15.20;;;0.60;99.90;;;;;;5030648;28;20188;-70
2021/12/27 03:50:31;;;;;;;23.50;16.20;;;0.60;99.90;;;;;;5032697;28;20667;-70
2021/12/27 03:52:57;;;;;;;20.10;15.03;;;0.60;99.90;;;;;;5024599;28;20244;-70
2021/12/27 03:55:24;;;;;;;23.47;16.73;;;0.70;99.90;;;;;;5034516;28;20207;-70
2021/12/27 03:57:54;;;;;;;20.90;15.70;;;0.60;99.90;;;;;;5034990;28;20183;-70
2021/12/27 04:02:54;;;;;;;21.33;15.63;;;0.60;99.90;;;;;;5023558;28;20610;-70
2021/12/27 04:05:22;;;;;;;22.83;16.50;;;0.60;99.90;;;;;;5027382;28;20196;-70
2021/12/27 04:07:56;;;;;;;19.03;15.10;;;0.60;99.90;;;;;;5033772;28;20255;-70
2021/12/27 04:10:22;;;;;;;20.33;16.30;;;0.60;99.90;;;;;;5032516;28;20204;-70
2021/12/27 04:12:48;;;;;;;23.40;16.17;;;0.60;99.90;;;;;;5024774;28;20724;-70
2021/12/27 04:15:13;;;;;;;20.40;15.60;;;0.60;99.90;;;;;;5031675;28;20271;-70
2021/12/27 04:17:39;;;;;;;23.03;16.70;;;0.60;99.90;;;;;;5029239;28;20183;-70
2021/12/27 04:20:06;;;;;;;23.73;17.53;;;0.60;99.90;;;;;;5027035;28;20234;-71
2021/12/27 04:22:33;;;;;;;21.00;16.20;;;0.60;99.90;;;;;;5031949;28;20184;-70
2021/12/27 04:25:00;;;;;;;22.40;16.57;;;0.60;99.90;;;;;;5027672;28;20192;-70
2021/12/27 04:27:26;;;;;;;23.17;15.70;;;0.60;99.90;;;;;;5029546;28;20190;-70
2021/12/27 04:29:52;;;;;;;20.80;16.13;;;0.60;99.90;;;;;;5024666;28;20208;-70
2021/12/27 04:32:17;;;;;;;22.77;17.53;;;0.60;99.90;;;;;;5029579;28;20190;-70
2021/12/27 04:34:43;;;;;;;22.80;16.13;;;0.70;99.90;;;;;;5034589;28;20220;-70
2021/12/27 04:37:09;;;;;;;22.97;15.77;;;0.60;99.90;;;;;;5028615;28;20203;-70
2021/12/27 04:39:35;;;;;;;23.70;17.20;;;0.60;99.90;;;;;;5029345;28;20200;-71
2021/12/27 04:42:01;;;;;;;21.27;17.00;;;0.60;99.90;;;;;;5038313;28;20659;-71
2021/12/27 04:44:27;;;;;;;24.23;16.77;;;0.60;99.90;;;;;;5032374;28;20196;-70
2021/12/27 04:46:52;;;;;;;23.50;17.10;;;0.60;99.90;;;;;;5023011;28;20185;-70
2021/12/27 04:49:18;;;;;;;24.63;17.00;;;0.60;99.90;;;;;;5031360;28;20188;-71
2021/12/27 04:51:44;;;;;;;25.73;17.57;;;0.60;99.90;;;;;;5023812;28;20188;-70
2021/12/27 04:54:10;;;;;;;23.77;17.87;;;0.60;99.90;;;;;;5029815;28;20273;-70
2021/12/27 04:56:36;;;;;;;23.43;16.70;;;0.60;99.90;;;;;;5026801;28;20703;-70
2021/12/27 04:59:02;;;;;;;23.47;17.67;;;0.60;99.90;;;;;;5019786;28;20264;-70
2021/12/27 05:01:27;;;;;;;28.13;17.83;;;0.60;99.90;;;;;;5023288;28;20291;-69
2021/12/27 05:03:53;;;;;;;25.17;17.57;;;0.60;99.90;;;;;;5033542;28;20259;-70
2021/12/27 05:06:19;;;;;;;25.60;18.00;;;0.70;99.90;;;;;;5033079;28;20279;-71
2021/12/27 05:08:44;;;;;;;26.77;18.63;;;0.70;99.90;;;;;;5032571;28;20199;-70
2021/12/27 05:11:10;;;;;;;23.30;17.33;;;0.70;99.90;;;;;;5031681;28;20204;-70
2021/12/27 05:13:36;;;;;;;24.47;18.17;;;0.60;99.90;;;;;;5034052;28;20208;-70
2021/12/27 05:16:02;;;;;;;23.17;18.30;;;0.60;99.90;;;;;;5035927;28;20233;-70
2021/12/27 05:18:28;;;;;;;24.80;18.43;;;0.50;99.90;;;;;;5031652;28;20243;-70
2021/12/27 05:20:54;;;;;;;27.00;19.37;;;0.50;99.90;;;;;;5033070;28;20198;-70
2021/12/27 05:23:20;;;;;;;27.50;19.57;;;0.60;99.90;;;;;;5032077;28;20701;-70
2021/12/27 05:25:45;;;;;;;26.33;18.77;;;0.60;99.90;;;;;;5034911;28;20717;-70
2021/12/27 05:28:11;;;;;;;30.00;20.13;;;0.60;99.90;;;;;;5030687;28;20275;-70
2021/12/27 05:30:38;;;;;;;27.43;19.00;;;0.50;99.90;;;;;;5031555;28;20267;-70
2021/12/27 05:33:04;;;;;;;28.03;19.80;;;0.50;99.90;;;;;;5035523;28;20239;-70
2021/12/27 05:35:30;;;;;;;32.03;19.83;;;0.50;99.90;;;;;;5028157;28;20208;-70
2021/12/27 05:37:56;;;;;;;30.13;19.93;;;0.50;99.90;;;;;;5035462;28;20655;-70
2021/12/27 05:40:23;;;;;;;28.07;19.20;;;0.50;99.90;;;;;;5031194;28;20203;-70
2021/12/27 05:42:50;;;;;;;29.17;20.07;;;0.60;99.90;;;;;;5032712;28;20568;-70
2021/12/27 05:45:16;;;;;;;26.97;18.77;;;0.50;99.90;;;;;;5033866;28;20538;-70
2021/12/27 05:47:43;;;;;;;31.10;20.33;;;0.40;99.90;;;;;;5033649;28;20757;-70
2021/12/27 05:50:14;;;;;;;28.90;20.13;;;0.50;99.90;;;;;;5038783;28;20216;-70
2021/12/27 05:52:40;;;;;;;31.97;20.07;;;0.50;99.90;;;;;;5025838;28;20555;-70
2021/12/27 05:55:09;;;;;;;30.33;21.00;;;0.50;99.90;;;;;;5029259;28;20181;-70
2021/12/27 05:57:35;;;;;;;32.77;21.10;;;0.50;99.90;;;;;;5032978;28;20188;-70
2021/12/27 06:00:02;;;;;;;28.67;19.93;;;0.50;99.90;;;;;;5029727;28;20220;-70
2021/12/27 06:02:28;;;;;;;28.50;19.17;;;0.50;99.90;;;;;;5021801;28;20723;-70
2021/12/27 06:04:54;;;;;;;33.73;21.63;;;0.50;99.90;;;;;;5033581;28;20177;-70
2021/12/27 06:07:19;;;;;;;31.90;20.83;;;0.50;99.90;;;;;;5032181;28;20180;-70
2021/12/27 06:09:45;;;;;;;28.50;19.13;;;0.40;99.90;;;;;;5030893;28;20274;-71
2021/12/27 06:12:10;;;;;;;31.17;20.50;;;0.50;99.90;;;;;;5030698;28;20192;-70
2021/12/27 06:14:36;;;;;;;31.97;22.80;;;0.50;99.90;;;;;;5033685;28;20283;-70
2021/12/27 06:17:02;;;;;;;31.23;22.03;;;0.40;99.90;;;;;;5031585;28;20318;-71
2021/12/27 06:19:28;;;;;;;36.13;22.17;;;0.40;99.90;;;;;;5028040;28;20534;-71
2021/12/27 06:21:53;;;;;;;33.00;23.00;;;0.40;99.90;;;;;;5023495;28;20192;-71
2021/12/27 06:24:19;;;;;;;32.77;22.03;;;0.30;99.90;;;;;;5031663;28;20262;-71
2021/12/27 06:26:45;;;;;;;34.70;22.27;;;0.40;99.90;;;;;;5030646;28;20260;-71
2021/12/27 06:29:11;;;;;;;32.70;21.50;;;0.40;99.90;;;;;;5028459;28;20199;-70
2021/12/27 06:31:36;;;;;;;37.70;22.53;;;0.30;99.90;;;;;;5026124;28;20200;-71
2021/12/27 06:34:02;;;;;;;42.87;24.03;;;0.30;99.90;;;;;;5031837;28;20244;-71
2021/12/27 06:36:28;;;;;;;38.17;23.80;;;0.40;99.90;;;;;;5031227;28;20381;-70
2021/12/27 06:38:53;;;;;;;38.70;25.20;;;0.40;99.90;;;;;;5031172;28;20180;-71
2021/12/27 06:41:19;;;;;;;36.50;23.87;;;0.40;99.90;;;;;;5031577;28;20231;-70
2021/12/27 06:43:44;;;;;;;35.67;23.13;;;0.50;99.90;;;;;;5031311;28;20172;-70
2021/12/27 06:46:10;;;;;;;33.90;23.90;;;0.50;99.90;;;;;;5030073;28;20192;-70
2021/12/27 06:48:36;;;;;;;39.47;23.30;;;0.50;99.90;;;;;;5031804;28;20676;-70
2021/12/27 06:51:01;;;;;;;31.73;22.37;;;0.50;99.90;;;;;;5032900;28;20698;-70
2021/12/27 06:53:30;;;;;;;37.93;23.97;;;0.50;99.90;;;;;;5032502;28;20205;-70
2021/12/27 06:55:56;;;;;;;36.97;22.17;;;0.50;99.90;;;;;;5024426;28;20238;-70
2021/12/27 06:58:22;;;;;;;36.17;24.57;;;0.50;99.90;;;;;;5031285;28;20258;-70
2021/12/27 07:00:48;;;;;;;40.10;23.43;;;0.50;99.90;;;;;;5028300;28;20208;-70
2021/12/27 07:03:14;;;;;;;35.10;21.80;;;0.50;99.90;;;;;;5027060;28;20191;-70
2021/12/27 07:05:41;;;;;;;40.50;23.43;;;0.50;99.90;;;;;;5032712;28;20696;-70
2021/12/27 07:08:07;;;;;;;34.53;23.00;;;0.50;99.90;;;;;;5031061;28;20187;-70
2021/12/27 07:10:32;;;;;;;37.17;23.97;;;0.50;99.90;;;;;;5025066;28;20205;-70
2021/12/27 07:12:59;;;;;;;38.83;23.37;;;0.60;99.90;;;;;;5021237;28;20189;-71
2021/12/27 07:15:25;;;;;;;35.37;21.80;;;0.60;99.90;;;;;;5026247;28;20259;-71
2021/12/27 07:17:51;;;;;;;35.83;22.93;;;0.60;99.90;;;;;;5031151;28;20732;-71
2021/12/27 07:20:16;;;;;;;34.67;23.00;;;0.50;99.90;;;;;;5030248;28;20444;-70
2021/12/27 07:22:42;;;;;;;39.07;22.53;;;0.60;99.90;;;;;;5030690;28;20566;-71
2021/12/27 07:25:08;;;;;;;38.67;24.17;;;0.60;99.90;;;;;;5016480;28;20292;-71
2021/12/27 07:27:34;;;;;;;37.77;22.60;;;0.50;99.90;;;;;;5015682;28;20300;-70
2021/12/27 07:30:00;;;;;;;39.20;23.20;;;0.50;99.90;;;;;;5024214;28;20269;-71
2021/12/27 07:32:26;;;;;;;42.13;24.17;;;0.40;99.90;;;;;;5025625;28;21425;-71
2021/12/27 07:34:52;;;;;;;41.97;24.00;;;0.50;99.90;;;;;;5029976;28;20259;-72
2021/12/27 07:37:17;;;;;;;44.30;24.40;;;0.40;99.90;;;;;;5027550;28;20209;-71
2021/12/27 07:39:44;;;;;;;41.67;25.23;;;0.50;99.90;;;;;;5031485;28;20197;-74
2021/12/27 07:42:10;;;;;;;41.30;22.83;;;0.50;99.90;;;;;;5027293;28;20239;-74
2021/12/27 07:44:35;;;;;;;39.13;24.33;;;0.50;99.90;;;;;;5028614;28;20667;-74
2021/12/27 07:47:02;;;;;;;44.57;24.07;;;0.50;99.90;;;;;;5034512;28;20231;-74
2021/12/27 07:49:27;;;;;;;42.00;25.03;;;0.60;99.90;;;;;;5029372;28;20326;-74
2021/12/27 07:51:53;;;;;;;41.50;24.13;;;0.60;99.90;;;;;;5034522;28;20192;-74
2021/12/27 07:54:19;;;;;;;40.07;23.53;;;0.60;99.90;;;;;;5035612;28;20234;-76
2021/12/27 07:56:44;;;;;;;41.37;24.90;;;0.60;99.90;;;;;;5037632;28;20185;-75
2021/12/27 07:59:10;;;;;;;41.33;23.53;;;0.70;99.90;;;;;;5034009;28;20196;-76
2021/12/27 08:01:38;;;;;;;42.20;23.83;;;0.70;99.90;;;;;;5031766;28;20189;-76
2021/12/27 08:04:05;;;;;;;39.97;24.87;;;0.60;99.90;;;;;;5033147;28;20192;-75
2021/12/27 08:06:31;;;;;;;37.03;23.73;;;0.60;99.90;;;;;;5035707;28;20168;-75
2021/12/27 08:08:57;;;;;;;37.50;22.97;;;0.70;99.90;;;;;;5038782;28;20549;-74
2021/12/27 08:11:24;;;;;;;43.10;25.90;;;0.70;99.90;;;;;;5027230;28;20216;-75
2021/12/27 08:13:50;;;;;;;35.23;22.20;;;0.80;99.90;;;;;;5034393;28;20208;-75
2021/12/27 08:16:17;;;;;;;37.47;22.50;;;0.80;99.90;;;;;;5029871;28;20189;-74
2021/12/27 08:18:46;;;;;;;42.37;23.83;;;0.90;99.90;;;;;;5033053;28;20183;-76
2021/12/27 08:21:13;;;;;;;36.03;23.50;;;0.90;99.90;;;;;;5033476;28;20745;-75
2021/12/27 08:23:39;;;;;;;39.13;23.50;;;1.00;99.90;;;;;;5031209;28;20604;-76
2021/12/27 08:26:05;;;;;;;39.23;24.37;;;1.00;99.90;;;;;;5028991;28;20196;-76
2021/12/27 08:28:31;;;;;;;40.40;23.40;;;1.00;99.90;;;;;;5024334;28;20174;-76
2021/12/27 08:30:56;;;;;;;39.97;23.13;;;1.00;99.90;;;;;;5031550;28;20240;-74
2021/12/27 08:33:22;;;;;;;37.10;23.30;;;1.10;99.90;;;;;;5029779;28;20800;-71
2021/12/27 08:35:48;;;;;;;39.40;23.50;;;1.10;99.90;;;;;;5028942;28;20209;-72
2021/12/27 08:38:16;;;;;;;39.13;22.33;;;1.20;99.90;;;;;;5029051;28;20263;-71
2021/12/27 08:40:41;;;;;;;39.90;22.57;;;1.30;99.90;;;;;;5029216;28;20198;-72
2021/12/27 08:43:07;;;;;;;36.80;22.83;;;1.20;99.90;;;;;;5035711;28;20262;-71
2021/12/27 08:45:33;;;;;;;41.07;22.97;;;1.30;99.90;;;;;;5032574;28;20176;-72
2021/12/27 08:47:58;;;;;;;35.80;21.57;;;1.40;99.90;;;;;;5032202;28;20243;-72
2021/12/27 08:50:24;;;;;;;35.40;22.67;;;1.50;99.90;;;;;;5028509;28;20203;-72
2021/12/27 08:52:50;;;;;;;33.57;22.07;;;1.60;99.90;;;;;;5030454;28;20215;-72
2021/12/27 08:55:16;;;;;;;35.90;22.83;;;1.60;99.90;;;;;;5027078;28;20539;-71
2021/12/27 08:57:43;;;;;;;32.60;21.87;;;1.60;99.90;;;;;;5026185;28;20184;-70
2021/12/27 09:00:11;;;;;;;34.97;21.60;;;1.70;99.90;;;;;;5033023;28;20209;-71
2021/12/27 09:02:37;;;;;;;32.70;20.90;;;1.90;99.90;;;;;;5035346;28;20176;-70
2021/12/27 09:05:04;;;;;;;32.33;21.13;;;1.90;99.90;;;;;;5032023;28;20651;-70
2021/12/27 09:07:29;;;;;;;37.50;21.53;;;2.00;99.90;;;;;;5029498;28;20275;-72
2021/12/27 09:09:55;;;;;;;35.73;21.77;;;2.10;99.90;;;;;;5023052;28;20795;-71
2021/12/27 09:12:21;;;;;;;36.47;21.63;;;2.00;99.90;;;;;;5026773;28;20180;-72
2021/12/27 09:14:46;;;;;;;32.67;21.03;;;2.20;99.90;;;;;;5030854;28;20239;-72
2021/12/27 09:17:12;;;;;;;34.47;20.77;;;2.10;99.90;;;;;;5031725;28;20279;-71
2021/12/27 09:19:38;;;;;;;33.43;21.43;;;2.00;99.90;;;;;;5031520;28;20197;-74
2021/12/27 09:22:04;;;;;;;30.80;21.10;;;2.00;99.90;;;;;;5034398;28;20187;-73
2021/12/27 09:24:31;;;;;;;35.07;22.27;;;2.10;99.90;;;;;;5030309;28;20212;-73
2021/12/27 09:26:58;;;;;;;37.77;21.63;;;2.10;99.90;;;;;;5029992;28;20185;-72
2021/12/27 09:29:24;;;;;;;32.67;21.43;;;2.30;99.90;;;;;;5032597;28;20176;-72
2021/12/27 09:31:50;;;;;;;33.90;21.27;;;2.30;99.90;;;;;;5033074;28;20290;-71
2021/12/27 09:34:16;;;;;;;34.60;21.27;;;2.30;99.90;;;;;;5032372;28;20227;-71
2021/12/27 09:36:42;;;;;;;31.43;20.83;;;2.30;99.90;;;;;;5026314;28;20172;-71
2021/12/27 09:39:08;;;;;;;37.23;21.73;;;2.30;99.90;;;;;;5032202;28;20805;-73
2021/12/27 09:41:34;;;;;;;31.43;21.13;;;2.20;99.90;;;;;;5026952;28;20227;-72
2021/12/27 09:43:59;;;;;;;32.63;21.07;;;2.30;99.90;;;;;;5027225;28;20192;-71
2021/12/27 09:46:25;;;;;;;36.87;21.53;;;2.30;99.90;;;;;;5031785;28;20172;-71
2021/12/27 09:48:53;;;;;;;32.43;21.53;;;2.30;99.90;;;;;;5032206;28;20181;-72
2021/12/27 09:51:19;;;;;;;31.20;20.00;;;2.40;99.90;;;;;;5034074;28;20199;-71
2021/12/27 09:53:45;;;;;;;37.83;21.40;;;2.50;99.90;;;;;;5031301;28;20730;-71
2021/12/27 09:56:12;;;;;;;37.27;22.97;;;2.30;99.90;;;;;;5037079;28;20174;-72
2021/12/27 09:58:38;;;;;;;36.60;21.07;;;2.30;99.90;;;;;;5027708;28;20208;-71
2021/12/27 10:01:06;;;;;;;34.40;22.10;;;2.40;99.90;;;;;;5029892;28;20227;-71
2021/12/27 10:03:52;;;;;;;37.60;23.30;;;2.40;99.90;;;;;;5019702;28;20572;-71
2021/12/27 10:06:20;;;;;;;34.90;21.23;;;2.50;99.90;;;;;;5028876;28;20169;-72
2021/12/27 10:08:49;;;;;;;37.50;21.50;;;2.50;99.90;;;;;;5028711;28;20219;-73
2021/12/27 10:11:17;;;;;;;34.97;21.50;;;2.50;99.90;;;;;;5024409;28;20260;-74
2021/12/27 10:14:04;;;;;;;33.30;20.37;;;2.60;99.90;;;;;;5022136;28;20232;-73
2021/12/27 10:16:31;;;;;;;35.20;22.07;;;2.60;99.90;;;;;;5019724;28;20717;-73
2021/12/27 10:18:59;;;;;;;34.83;20.93;;;2.60;99.90;;;;;;5032129;28;20172;-73
2021/12/27 10:21:26;;;;;;;42.13;22.27;;;2.70;99.90;;;;;;5019738;28;20217;-73
2021/12/27 10:24:16;;;;;;;36.83;21.40;;;2.70;99.90;;;;;;5024953;28;20621;-74
2021/12/27 10:26:49;;;;;;;32.37;21.10;;;2.80;99.90;;;;;;5020429;28;20268;-74
2021/12/27 10:29:23;;;;;;;33.07;22.07;;;2.70;99.90;;;;;;5026931;28;20184;-72
2021/12/27 10:32:04;;;;;;;35.13;21.30;;;2.80;99.90;;;;;;5026632;28;20207;-72
2021/12/27 10:34:44;;;;;;;34.43;21.77;;;2.70;99.90;;;;;;5029579;28;20433;-72
2021/12/27 10:37:12;;;;;;;33.50;21.37;;;2.80;99.90;;;;;;5027336;28;20180;-74
2021/12/27 10:39:46;;;;;;;37.03;20.37;;;2.80;99.90;;;;;;5025261;28;20279;-75
2021/12/27 10:42:18;;;;;;;32.90;22.20;;;2.80;99.90;;;;;;5027955;28;20202;-73
2021/12/27 10:44:44;;;;;;;34.67;20.90;;;2.90;99.90;;;;;;5046352;28;20171;-75
2021/12/27 10:47:28;;;;;;;32.67;20.83;;;2.90;99.90;;;;;;5028972;28;20180;-74
2021/12/27 10:49:54;;;;;;;31.33;21.53;;;2.80;99.90;;;;;;5024366;28;20943;-74
2021/12/27 10:52:20;;;;;;;36.03;20.57;;;2.90;99.90;;;;;;5029243;28;20180;-73
2021/12/27 10:54:46;;;;;;;32.10;21.03;;;3.00;99.90;;;;;;5021556;28;20246;-75
2021/12/27 10:57:14;;;;;;;31.43;20.03;;;2.90;99.90;;;;;;5032631;28;20173;-73
2021/12/27 10:59:39;;;;;;;33.67;21.33;;;2.90;99.90;;;;;;5031237;28;20259;-74
2021/12/27 11:02:11;;;;;;;32.27;19.40;;;2.90;99.90;;;;;;5031198;28;20185;-73
2021/12/27 11:04:37;;;;;;;28.87;19.60;;;2.90;99.90;;;;;;5027488;28;20272;-72
2021/12/27 11:07:05;;;;;;;31.33;21.13;;;2.90;99.90;;;;;;5035130;28;20215;-74
2021/12/27 11:09:32;;;;;;;31.93;20.63;;;3.00;99.90;;;;;;5032215;28;20169;-75
2021/12/27 11:11:58;;;;;;;33.40;20.43;;;3.20;99.90;;;;;;5032456;28;20190;-75
2021/12/27 11:14:24;;;;;;;31.37;19.80;;;3.30;99.90;;;;;;5030521;28;20255;-74
2021/12/27 11:16:50;;;;;;;28.80;18.67;;;3.40;99.90;;;;;;5027217;28;20172;-74
2021/12/27 11:19:15;;;;;;;30.93;19.67;;;3.40;99.90;;;;;;5030674;28;20183;-73
2021/12/27 11:21:41;;;;;;;27.37;19.43;;;3.40;99.90;;;;;;5024490;28;20942;-74
2021/12/27 11:24:08;;;;;;;30.70;20.17;;;3.50;99.90;;;;;;5031530;28;20177;-74
2021/12/27 11:26:37;;;;;;;30.70;20.83;;;3.70;99.90;;;;;;5025530;28;20182;-74
2021/12/27 11:29:19;;;;;;;31.87;20.57;;;3.70;99.90;;;;;;5031599;28;20235;-74
2021/12/27 11:31:48;;;;;;;30.17;18.97;;;3.50;99.90;;;;;;5034274;28;20204;-75
2021/12/27 11:34:16;;;;;;;33.00;19.73;;;3.50;99.90;;;;;;5026107;28;20196;-74
2021/12/27 11:36:56;;;;;;;32.97;19.40;;;3.60;99.90;;;;;;5029670;28;20166;-74
2021/12/27 11:39:29;;;;;;;27.43;18.37;;;3.70;99.90;;;;;;5023998;28;20564;-72
2021/12/27 11:42:21;;;;;;;29.60;18.63;;;3.70;99.90;;;;;;5027714;28;20500;-71
2021/12/27 11:44:53;;;;;;;33.40;20.00;;;3.80;99.90;;;;;;5025002;28;20664;-73
2021/12/27 11:47:30;;;;;;;28.30;20.67;;;3.90;99.90;;;;;;5033279;28;20184;-72
2021/12/27 11:50:02;;;;;;;29.00;18.67;;;3.80;99.90;;;;;;5037283;28;20208;-72
2021/12/27 11:52:38;;;;;;;34.10;19.83;;;3.80;99.90;;;;;;5032864;28;20182;-72
2021/12/27 11:55:17;;;;;;;28.03;18.13;;;3.90;99.90;;;;;;5028292;28;20866;-71
2021/12/27 11:57:44;;;;;;;28.07;18.43;;;3.90;99.90;;;;;;5023003;28;20169;-70
2021/12/27 12:00:16;;;;;;;27.73;18.80;;;3.90;99.90;;;;;;5028806;28;20750;-71
2021/12/27 12:02:42;;;;;;;29.43;19.13;;;4.00;99.90;;;;;;5029465;28;20671;-70
2021/12/27 12:05:08;;;;;;;27.77;18.47;;;4.00;99.90;;;;;;5022648;28;20181;-70
2021/12/27 12:07:34;;;;;;;27.60;18.63;;;4.00;99.90;;;;;;5027077;28;20559;-70
2021/12/27 12:10:02;;;;;;;26.43;17.77;;;4.20;99.90;;;;;;5025658;28;20258;-69
2021/12/27 12:12:31;;;;;;;32.13;19.25;;;4.40;99.90;;;;;;5029992;28;20203;-69
2021/12/27 12:14:58;;;;;;;31.80;19.20;;;4.40;99.90;;;;;;5024192;28;20264;-70
2021/12/27 12:17:47;;;;;;;29.83;18.50;;;4.50;99.90;;;;;;5024338;28;20180;-69
2021/12/27 12:20:35;;;;;;;27.60;17.20;;;4.70;99.90;;;;;;5025660;28;20207;-70
2021/12/27 12:23:09;;;;;;;26.40;17.58;;;4.80;99.90;;;;;;5037022;28;20238;-70
2021/12/27 12:25:36;;;;;;;28.53;19.43;;;4.80;99.90;;;;;;5030576;28;20188;-70
2021/12/27 12:28:03;;;;;;;27.48;18.63;;;4.60;99.90;;;;;;5030970;28;20183;-69
2021/12/27 12:30:38;;;;;;;26.93;17.73;;;4.60;99.90;;;;;;5029188;28;20201;-70
2021/12/27 12:33:07;;;;;;;29.40;18.83;;;4.80;99.90;;;;;;5028130;28;20291;-71
2021/12/27 12:35:38;;;;;;;28.73;18.77;;;4.90;99.90;;;;;;5024431;28;20173;-71
2021/12/27 12:38:16;;;;;;;26.75;18.63;;;4.80;99.90;;;;;;5030812;28;20646;-71
2021/12/27 12:40:44;;;;;;;28.52;19.17;;;4.90;99.90;;;;;;5033384;28;20271;-71
2021/12/27 12:43:10;;;;;;;31.73;18.92;;;5.10;99.90;;;;;;5023032;28;20211;-71